createdAt,value
2023-03-28T00:00:29.148Z,3.45
2023-03-28T00:05:31.476Z,4.60
2023-03-28T00:10:33.836Z,4.20
2023-03-28T00:15:38.673Z,3.83
2023-03-28T00:20:43.616Z,4.90
2023-03-28T00:25:45.723Z,4.00
2023-03-28T00:30:47.792Z,6.20
2023-03-28T00:35:49.837Z,4.80
2023-03-28T00:40:56.144Z,3.70
2023-03-28T00:46:08.592Z,3.85
2023-03-28T00:51:14.760Z,3.28
2023-03-28T00:56:21.681Z,3.50
2023-03-28T01:01:23.795Z,3.38
2023-03-28T01:06:26.351Z,2.53
2023-03-28T01:11:29.257Z,2.20
2023-03-28T01:16:31.541Z,2.42
2023-03-28T01:21:48.558Z,2.00
2023-03-28T01:27:16.125Z,2.05
2023-03-28T01:33:04.045Z,1.80
2023-03-28T01:38:48.941Z,2.03
2023-03-28T01:44:02.443Z,1.80
2023-03-28T01:49:07.570Z,2.15
2023-03-28T01:54:39.714Z,2.03
2023-03-28T02:00:00.982Z,1.80
2023-03-28T02:05:11.753Z,1.40
2023-03-28T02:10:23.921Z,1.83
2023-03-28T02:15:33.026Z,1.58
2023-03-28T02:20:37.106Z,1.60
2023-03-28T02:25:59.568Z,1.45
2023-03-28T02:31:32.850Z,1.40
2023-03-28T02:36:40.768Z,1.48
2023-03-28T02:41:57.040Z,1.75
2023-03-28T02:47:19.258Z,1.50
2023-03-28T02:52:36.959Z,1.40
2023-03-28T02:57:48.937Z,1.50
2023-03-28T03:02:52.193Z,1.45
2023-03-28T03:07:54.511Z,1.20
2023-03-28T03:12:58.568Z,1.50
2023-03-28T03:18:01.133Z,1.30
2023-03-28T03:23:07.613Z,1.42
2023-03-28T03:28:11.036Z,1.10
2023-03-28T03:33:16.828Z,1.08
2023-03-28T03:38:21.304Z,1.10
2023-03-28T03:43:23.457Z,0.90
2023-03-28T03:48:25.631Z,0.80
2023-03-28T03:53:34.695Z,1.35
2023-03-28T03:58:45.592Z,1.30
2023-03-28T04:03:48.312Z,1.02
2023-03-28T04:08:58.493Z,1.27
2023-03-28T04:14:25.329Z,1.30
2023-03-28T04:19:40.053Z,0.85
2023-03-28T04:24:44.624Z,1.00
2023-03-28T04:29:56.399Z,1.35
2023-03-28T04:35:21.425Z,1.10
2023-03-28T04:40:28.200Z,1.67
2023-03-28T04:45:45.118Z,1.42
2023-03-28T04:50:51.140Z,1.45
2023-03-28T04:55:53.427Z,1.30
2023-03-28T05:01:03.861Z,1.40
2023-03-28T05:06:35.898Z,1.20
2023-03-28T05:11:38.872Z,1.65
2023-03-28T05:16:41.266Z,1.33
2023-03-28T05:22:02.053Z,1.30
2023-03-28T05:27:05.159Z,1.95
2023-03-28T05:32:07.395Z,1.50
2023-03-28T05:37:10.441Z,1.35
2023-03-28T05:42:20.337Z,1.10
2023-03-28T05:47:23.109Z,1.48
2023-03-28T05:52:25.973Z,1.48
2023-03-28T05:57:28.415Z,1.30
2023-03-28T06:02:30.952Z,1.45
2023-03-28T06:07:41.915Z,1.40
2023-03-28T06:12:47.713Z,1.65
2023-03-28T06:17:49.924Z,3.05
2023-03-28T06:22:52.278Z,3.22
2023-03-28T06:27:54.804Z,2.88
2023-03-28T06:32:57.264Z,3.00
2023-03-28T06:37:59.476Z,4.13
2023-03-28T06:43:02.241Z,3.00
2023-03-28T06:48:33.071Z,2.92
2023-03-28T06:54:05.358Z,2.22
2023-03-28T06:59:07.500Z,1.80
2023-03-28T07:04:11.073Z,1.83
2023-03-28T07:09:15.925Z,1.75
2023-03-28T07:14:26.928Z,2.08
2023-03-28T07:19:29.409Z,1.83
2023-03-28T07:24:32.007Z,2.67
2023-03-28T07:29:41.179Z,3.53
2023-03-28T07:34:43.541Z,3.30
2023-03-28T07:39:49.013Z,3.67
2023-03-28T07:44:55.863Z,1.98
2023-03-28T07:49:58.060Z,1.23
2023-03-28T07:55:01.614Z,1.90
2023-03-28T08:00:13.103Z,3.90
2023-03-28T08:05:29.313Z,3.72
2023-03-28T08:10:32.643Z,2.15
2023-03-28T08:15:35.528Z,1.90
2023-03-28T08:20:37.715Z,2.53
2023-03-28T08:25:47.940Z,1.75
2023-03-28T08:30:53.911Z,1.90
2023-03-28T08:35:56.945Z,1.75
2023-03-28T08:41:22.385Z,1.88
2023-03-28T08:46:35.582Z,1.70
2023-03-28T08:51:41.448Z,2.20
2023-03-28T08:56:48.601Z,2.35
2023-03-28T09:01:50.920Z,2.40
2023-03-28T09:07:02.681Z,2.03
2023-03-28T09:12:08.026Z,1.77
2023-03-28T09:17:32.270Z,1.63
2023-03-28T09:22:56.167Z,1.63
2023-03-28T09:28:27.476Z,1.50
2023-03-28T09:33:39.208Z,2.05
2023-03-28T09:38:54.979Z,1.35
2023-03-28T09:44:00.747Z,1.98
2023-03-28T09:49:38.371Z,1.98
2023-03-28T09:54:46.200Z,1.55
2023-03-28T09:59:48.573Z,2.25
2023-03-28T10:04:56.904Z,1.90
2023-03-28T10:10:21.205Z,1.45
2023-03-28T10:15:33.857Z,1.70
2023-03-28T10:20:54.813Z,3.00
2023-03-28T10:26:02.839Z,2.20
2023-03-28T10:31:05.930Z,2.33
2023-03-28T10:36:23.679Z,1.90
2023-03-28T10:41:29.851Z,1.58
2023-03-28T10:46:50.836Z,3.38
2023-03-28T10:52:18.565Z,1.90
2023-03-28T10:57:38.729Z,1.83
2023-03-28T11:02:55.998Z,1.90
2023-03-28T11:08:09.436Z,2.03
2023-03-28T11:13:19.143Z,1.60
2023-03-28T11:18:40.298Z,1.65
2023-03-28T11:23:55.770Z,2.10
2023-03-28T11:29:12.118Z,1.90
2023-03-28T11:34:24.156Z,2.40
2023-03-28T11:39:59.353Z,2.00
2023-03-28T11:45:12.509Z,2.67
2023-03-28T11:50:24.788Z,2.08
2023-03-28T11:55:37.336Z,2.40
2023-03-28T12:01:09.354Z,1.92
2023-03-28T12:06:44.001Z,1.85
2023-03-28T12:12:13.804Z,1.48
2023-03-28T12:17:35.125Z,1.70
2023-03-28T12:22:50.541Z,1.55
2023-03-28T12:28:11.196Z,2.25
2023-03-28T12:33:24.250Z,2.42
2023-03-28T12:38:57.833Z,2.63
2023-03-28T12:44:08.132Z,2.35
2023-03-28T12:49:26.149Z,2.00
2023-03-28T12:54:32.113Z,2.17
2023-03-28T12:59:59.723Z,2.22
2023-03-28T13:05:44.007Z,1.80
2023-03-28T13:11:13.119Z,2.08
2023-03-28T13:16:23.831Z,2.10
2023-03-28T13:21:52.658Z,2.40
2023-03-28T13:26:59.894Z,2.13
2023-03-28T13:32:04.333Z,2.28
2023-03-28T13:37:37.002Z,2.25
2023-03-28T13:42:59.928Z,1.90
2023-03-28T13:48:12.649Z,1.98
2023-03-28T13:53:15.792Z,2.00
2023-03-28T13:58:19.115Z,2.55
2023-03-28T14:03:21.294Z,2.70
2023-03-28T14:08:25.636Z,2.25
2023-03-28T14:13:30.984Z,4.63
2023-03-28T14:18:39.953Z,4.35
2023-03-28T14:24:01.244Z,2.80
2023-03-28T14:29:11.570Z,2.28
2023-03-28T14:34:18.827Z,2.20
2023-03-28T14:39:21.348Z,2.00
2023-03-28T14:44:24.037Z,1.85
2023-03-28T14:49:27.319Z,1.88
2023-03-28T14:54:36.153Z,1.63
2023-03-28T14:59:42.232Z,1.48
2023-03-28T15:04:46.957Z,1.50
2023-03-28T15:10:11.807Z,1.50
2023-03-28T15:15:32.346Z,1.75
2023-03-28T15:20:36.808Z,1.48
2023-03-28T15:25:39.107Z,1.13
2023-03-28T15:30:43.795Z,0.70
2023-03-28T15:35:46.994Z,1.80
2023-03-28T15:40:51.018Z,1.23
2023-03-28T15:45:57.303Z,1.40
2023-03-28T15:51:04.333Z,1.75
2023-03-28T15:56:25.825Z,1.20
2023-03-28T16:01:31.178Z,0.80
2023-03-28T16:06:41.831Z,2.20
2023-03-28T16:11:46.112Z,1.10
2023-03-28T16:17:08.196Z,1.30
2023-03-28T16:22:21.130Z,0.80
2023-03-28T16:27:23.253Z,0.80
2023-03-28T16:32:25.459Z,0.80
2023-03-28T16:37:27.509Z,1.00
2023-03-28T16:42:30.803Z,0.82
2023-03-28T16:47:32.847Z,0.82
2023-03-28T16:52:38.953Z,0.65
2023-03-28T16:57:41.632Z,0.70
2023-03-28T17:02:48.008Z,0.80
2023-03-28T17:07:50.462Z,0.68
2023-03-28T17:12:52.611Z,1.00
2023-03-28T17:17:54.778Z,1.35
2023-03-28T17:22:57.592Z,1.67
2023-03-28T17:28:00.949Z,1.98
2023-03-28T17:33:04.725Z,2.13
2023-03-28T17:38:07.542Z,2.00
2023-03-28T17:43:11.561Z,2.28
2023-03-28T17:48:13.636Z,2.17
2023-03-28T17:53:15.711Z,2.50
2023-03-28T17:58:17.900Z,2.17
2023-03-28T18:03:20.339Z,2.67
2023-03-28T18:08:45.040Z,2.83
2023-03-28T18:13:47.349Z,2.65
2023-03-28T18:18:49.408Z,2.47
2023-03-28T18:23:51.803Z,2.97
2023-03-28T18:28:53.884Z,2.50
2023-03-28T18:33:57.403Z,2.40
2023-03-28T18:38:59.656Z,2.35
2023-03-28T18:44:01.883Z,2.33
2023-03-28T18:49:04.032Z,2.05
2023-03-28T18:54:06.509Z,2.75
2023-03-28T18:59:08.664Z,2.50
2023-03-28T19:04:11.985Z,2.40
2023-03-28T19:09:14.625Z,2.03
2023-03-28T19:14:16.897Z,2.45
2023-03-28T19:19:19.005Z,2.55
2023-03-28T19:24:21.812Z,2.30
2023-03-28T19:29:23.936Z,2.42
2023-03-28T19:34:26.041Z,1.83
2023-03-28T19:39:28.136Z,1.90
2023-03-28T19:44:31.249Z,1.70
2023-03-28T19:49:33.424Z,1.45
2023-03-28T19:54:36.527Z,1.42
2023-03-28T19:59:38.689Z,1.83
2023-03-28T20:04:41.069Z,1.55
2023-03-28T20:09:48.778Z,1.42
2023-03-28T20:14:51.387Z,1.90
2023-03-28T20:19:53.436Z,1.30
2023-03-28T20:24:55.802Z,1.52
2023-03-28T20:29:58.105Z,1.25
2023-03-28T20:35:00.376Z,1.40
2023-03-28T20:40:10.566Z,1.70
2023-03-28T20:45:22.341Z,1.50
2023-03-28T20:50:37.567Z,1.75
2023-03-28T20:55:40.478Z,1.70
2023-03-28T21:00:43.819Z,1.80
2023-03-28T21:05:46.863Z,1.65
2023-03-28T21:10:53.538Z,1.80
2023-03-28T21:15:55.552Z,1.33
2023-03-28T21:20:58.183Z,1.58
2023-03-28T21:26:00.651Z,1.65
2023-03-28T21:31:09.038Z,1.55
2023-03-28T21:36:12.861Z,1.60
2023-03-28T21:41:16.106Z,1.50
2023-03-28T21:46:18.843Z,1.15
2023-03-28T21:51:21.156Z,1.48
2023-03-28T21:56:23.241Z,1.63
2023-03-28T22:01:25.624Z,1.40
2023-03-28T22:06:28.156Z,1.10
2023-03-28T22:11:30.210Z,1.02
2023-03-28T22:16:38.112Z,1.30
2023-03-28T22:21:40.216Z,1.10
2023-03-28T22:26:42.563Z,1.17
2023-03-28T22:31:44.662Z,0.93
2023-03-28T22:36:49.503Z,1.00
2023-03-28T22:41:54.076Z,1.10
2023-03-28T22:47:02.217Z,0.80
2023-03-28T22:52:06.174Z,0.85
2023-03-28T22:57:08.392Z,1.00
2023-03-28T23:02:11.568Z,1.10
2023-03-28T23:07:14.209Z,0.80
2023-03-28T23:12:16.322Z,0.77
2023-03-28T23:17:19.029Z,0.60
2023-03-28T23:22:21.567Z,0.80
2023-03-28T23:27:23.729Z,0.50
2023-03-28T23:32:25.799Z,0.70
2023-03-28T23:37:28.249Z,0.85
2023-03-28T23:42:30.434Z,0.65
2023-03-28T23:47:32.545Z,0.70
2023-03-28T23:52:35.037Z,0.50
2023-03-28T23:57:37.307Z,0.55
